createdAt,value
2023-05-03T00:01:11.348Z,6.55
2023-05-03T00:03:14.322Z,6.85
2023-05-03T00:05:17.729Z,7.07
2023-05-03T00:07:20.278Z,6.82
2023-05-03T00:09:22.498Z,7.00
2023-05-03T00:11:24.681Z,7.75
2023-05-03T00:13:26.901Z,8.82
2023-05-03T00:15:29.118Z,6.55
2023-05-03T00:17:31.373Z,6.75
2023-05-03T00:19:34.158Z,7.57
2023-05-03T00:23:38.402Z,6.53
2023-05-03T00:25:40.568Z,5.88
2023-05-03T00:27:42.779Z,6.40
2023-05-03T00:29:44.973Z,6.50
2023-05-03T00:31:47.150Z,6.80
2023-05-03T00:33:49.328Z,9.23
2023-05-03T00:35:51.515Z,6.97
2023-05-03T00:37:53.726Z,8.25
2023-05-03T00:39:55.922Z,6.68
2023-05-03T00:41:58.623Z,6.50
2023-05-03T00:46:15.192Z,7.10
2023-05-03T00:48:19.593Z,8.23
2023-05-03T00:50:22.328Z,5.80
2023-05-03T00:54:30.517Z,6.60
2023-05-03T00:56:43.985Z,6.15
2023-05-03T00:58:53.139Z,6.63
2023-05-03T01:00:55.631Z,7.32
2023-05-03T01:02:58.014Z,7.85
2023-05-03T01:05:00.257Z,7.90
2023-05-03T01:07:21.082Z,7.75
2023-05-03T01:09:33.702Z,6.22
2023-05-03T01:11:41.388Z,6.47
2023-05-03T01:13:52.404Z,6.50
2023-05-03T01:16:07.079Z,7.13
2023-05-03T01:18:15.653Z,7.07
2023-05-03T01:20:20.060Z,6.68
2023-05-03T01:22:34.163Z,6.60
2023-05-03T01:24:38.680Z,6.72
2023-05-03T01:26:40.876Z,6.30
2023-05-03T01:28:43.069Z,6.88
2023-05-03T01:30:45.621Z,7.13
2023-05-03T01:34:52.515Z,8.73
2023-05-03T01:36:56.503Z,6.40
2023-05-03T01:38:59.200Z,6.95
2023-05-03T01:43:04.432Z,7.28
2023-05-03T01:47:09.168Z,7.03
2023-05-03T01:51:13.548Z,7.93
2023-05-03T01:53:15.694Z,7.10
2023-05-03T01:55:17.879Z,7.50
2023-05-03T01:57:20.078Z,7.10
2023-05-03T01:59:22.216Z,7.43
2023-05-03T02:01:24.356Z,7.53
2023-05-03T02:03:26.517Z,8.00
2023-05-03T02:05:28.903Z,8.25
2023-05-03T02:07:31.130Z,8.32
2023-05-03T02:09:33.406Z,8.02
2023-05-03T02:11:35.561Z,7.50
2023-05-03T02:13:38.787Z,6.90
2023-05-03T02:15:41.404Z,8.00
2023-05-03T02:17:44.078Z,7.00
2023-05-03T02:21:48.321Z,7.50
2023-05-03T02:23:50.512Z,10.98
2023-05-03T02:25:52.692Z,9.10
2023-05-03T02:27:54.824Z,7.53
2023-05-03T02:29:57.246Z,7.47
2023-05-03T02:31:59.430Z,8.43
2023-05-03T02:34:01.643Z,7.13
2023-05-03T02:36:04.109Z,7.93
2023-05-03T02:38:06.302Z,6.72
2023-05-03T02:40:09.659Z,7.32
2023-05-03T02:42:11.840Z,7.38
2023-05-03T02:44:13.965Z,6.85
2023-05-03T02:46:16.172Z,7.00
2023-05-03T02:48:18.466Z,8.13
2023-05-03T02:50:20.595Z,7.13
2023-05-03T02:52:22.735Z,7.07
2023-05-03T02:54:25.050Z,7.45
2023-05-03T02:56:27.619Z,7.72
2023-05-03T02:58:29.819Z,7.03
2023-05-03T03:00:31.991Z,7.32
2023-05-03T03:02:34.479Z,6.72
2023-05-03T03:04:36.801Z,6.57
2023-05-03T03:06:38.968Z,6.47
2023-05-03T03:08:41.253Z,6.10
2023-05-03T03:10:43.459Z,6.63
2023-05-03T03:12:45.714Z,7.82
2023-05-03T03:14:47.869Z,9.45
2023-05-03T03:16:51.991Z,6.57
2023-05-03T03:18:54.136Z,6.63
2023-05-03T03:20:56.305Z,7.50
2023-05-03T03:22:58.528Z,6.78
2023-05-03T03:25:00.774Z,8.63
2023-05-03T03:27:03.684Z,8.80
2023-05-03T03:29:05.873Z,9.10
2023-05-03T03:31:08.173Z,7.35
2023-05-03T03:33:11.332Z,7.15
2023-05-03T03:35:14.089Z,9.38
2023-05-03T03:39:18.311Z,6.57
2023-05-03T03:41:21.051Z,6.93
2023-05-03T03:45:25.296Z,9.25
2023-05-03T03:47:27.562Z,13.15
2023-05-03T03:49:29.791Z,13.60
2023-05-03T03:51:32.018Z,11.80
2023-05-03T03:53:34.152Z,10.73
2023-05-03T03:55:36.298Z,8.30
2023-05-03T03:57:38.470Z,9.50
2023-05-03T03:59:41.001Z,8.40
2023-05-03T04:01:43.244Z,7.40
2023-05-03T04:03:48.508Z,7.80
2023-05-03T04:05:51.318Z,7.82
2023-05-03T04:09:56.606Z,7.60
2023-05-03T04:11:58.753Z,7.80
2023-05-03T04:14:01.607Z,8.20
2023-05-03T04:16:04.702Z,6.63
2023-05-03T04:18:07.334Z,7.40
2023-05-03T04:20:11.160Z,8.45
2023-05-03T04:22:13.400Z,7.70
2023-05-03T04:24:16.576Z,9.07
2023-05-03T04:26:30.775Z,8.00
2023-05-03T04:28:34.143Z,11.90
2023-05-03T04:30:36.417Z,18.55
2023-05-03T04:32:40.747Z,13.45
2023-05-03T04:34:43.319Z,11.55
2023-05-03T04:36:46.527Z,13.35
2023-05-03T04:38:48.651Z,12.70
2023-05-03T04:40:50.885Z,14.20
2023-05-03T04:42:53.121Z,14.00
2023-05-03T04:44:55.283Z,13.07
2023-05-03T04:46:57.516Z,10.45
2023-05-03T04:49:00.025Z,9.55
2023-05-03T04:51:02.197Z,9.15
2023-05-03T04:53:04.526Z,9.02
2023-05-03T04:55:06.808Z,9.00
2023-05-03T04:57:10.339Z,9.52
2023-05-03T04:59:12.858Z,9.35
2023-05-03T05:01:15.097Z,10.57
2023-05-03T05:03:17.411Z,8.85
2023-05-03T05:05:20.521Z,9.60
2023-05-03T05:07:22.867Z,11.13
2023-05-03T05:09:26.483Z,10.65
2023-05-03T05:11:28.843Z,10.27
2023-05-03T05:13:31.023Z,9.60
2023-05-03T05:15:33.390Z,9.18
2023-05-03T05:17:35.933Z,9.35
2023-05-03T05:21:41.124Z,10.10
2023-05-03T05:23:43.357Z,10.25
2023-05-03T05:25:46.106Z,8.88
2023-05-03T05:29:50.460Z,9.65
2023-05-03T05:31:53.173Z,10.05
2023-05-03T05:33:55.506Z,10.73
2023-05-03T05:35:57.776Z,9.73
2023-05-03T05:38:00.459Z,11.50
2023-05-03T05:42:05.495Z,10.18
2023-05-03T05:46:10.295Z,10.10
2023-05-03T05:48:12.543Z,9.98
2023-05-03T05:50:18.239Z,8.82
2023-05-03T05:52:21.773Z,8.73
2023-05-03T05:54:24.081Z,9.80
2023-05-03T05:56:26.568Z,11.10
2023-05-03T05:58:28.724Z,10.02
2023-05-03T06:00:31.175Z,10.63
2023-05-03T06:02:33.432Z,13.88
2023-05-03T06:04:35.664Z,15.85
2023-05-03T06:06:37.855Z,17.42
2023-05-03T06:08:40.095Z,17.98
2023-05-03T06:10:42.258Z,21.52
2023-05-03T06:12:44.508Z,23.65
2023-05-03T06:15:01.450Z,22.25
2023-05-03T06:17:04.382Z,22.42
2023-05-03T06:19:06.653Z,22.92
2023-05-03T06:21:10.134Z,23.48
2023-05-03T06:23:12.381Z,26.83
2023-05-03T06:25:16.148Z,25.33
2023-05-03T06:27:19.811Z,26.30
2023-05-03T06:29:22.027Z,27.42
2023-05-03T06:31:24.268Z,26.70
2023-05-03T06:33:26.457Z,25.90
2023-05-03T06:35:28.624Z,28.95
2023-05-03T06:37:30.974Z,25.45
2023-05-03T06:39:33.143Z,24.00
2023-05-03T06:41:35.300Z,26.13
2023-05-03T06:43:37.455Z,26.33
2023-05-03T06:45:40.087Z,28.90
2023-05-03T06:47:43.012Z,30.58
2023-05-03T06:49:45.504Z,29.52
2023-05-03T06:51:47.623Z,26.60
2023-05-03T06:53:49.753Z,55.08
2023-05-03T06:55:52.066Z,31.38
2023-05-03T06:57:54.383Z,32.03
2023-05-03T06:59:56.732Z,26.15
2023-05-03T07:01:58.969Z,32.28
2023-05-03T07:04:01.777Z,25.83
2023-05-03T07:08:06.553Z,26.05
2023-05-03T07:10:08.880Z,28.20
2023-05-03T07:12:11.366Z,29.08
2023-05-03T07:14:13.755Z,44.25
2023-05-03T07:16:15.926Z,29.38
2023-05-03T07:18:18.444Z,46.88
2023-05-03T07:20:20.933Z,28.45
2023-05-03T07:22:25.301Z,30.58
2023-05-03T07:24:27.655Z,26.58
2023-05-03T07:26:29.802Z,27.63
2023-05-03T07:28:32.138Z,29.02
2023-05-03T07:30:34.422Z,26.42
2023-05-03T07:32:36.640Z,28.75
2023-05-03T07:34:39.011Z,26.83
2023-05-03T07:36:41.376Z,28.50
2023-05-03T07:38:43.584Z,30.73
2023-05-03T07:40:45.824Z,25.30
2023-05-03T07:42:48.018Z,24.88
2023-05-03T07:44:50.433Z,24.58
2023-05-03T07:46:52.588Z,26.05
2023-05-03T07:48:54.793Z,26.48
2023-05-03T07:50:57.023Z,23.65
2023-05-03T07:52:59.217Z,23.25
2023-05-03T07:55:03.267Z,20.85
2023-05-03T07:57:06.299Z,21.27
2023-05-03T07:59:10.294Z,21.60
2023-05-03T08:01:12.972Z,21.30
2023-05-03T08:03:15.345Z,24.42
2023-05-03T08:07:20.183Z,18.42
2023-05-03T08:09:23.120Z,18.42
2023-05-03T08:11:25.296Z,18.75
2023-05-03T08:13:27.431Z,18.10
2023-05-03T08:15:29.708Z,19.05
2023-05-03T08:17:32.118Z,17.85
2023-05-03T08:19:34.282Z,18.38
2023-05-03T08:21:36.412Z,21.30
2023-05-03T08:23:38.580Z,20.48
2023-05-03T08:25:40.809Z,18.38
2023-05-03T08:27:42.952Z,18.08
2023-05-03T08:29:45.175Z,18.95
2023-05-03T08:31:47.690Z,18.95
2023-05-03T08:33:50.003Z,19.20
2023-05-03T08:35:52.603Z,19.85
2023-05-03T08:37:54.962Z,18.42
2023-05-03T08:39:57.132Z,18.70
2023-05-03T08:42:00.328Z,21.58
2023-05-03T08:44:05.507Z,20.27
2023-05-03T08:46:12.189Z,20.98
2023-05-03T08:48:14.803Z,21.73
2023-05-03T08:50:17.063Z,20.83
2023-05-03T08:52:21.168Z,19.83
2023-05-03T08:54:24.500Z,22.73
2023-05-03T08:56:33.119Z,20.27
2023-05-03T08:58:36.710Z,23.02
2023-05-03T09:00:39.062Z,20.88
2023-05-03T09:02:41.579Z,22.73
2023-05-03T09:04:44.061Z,22.70
2023-05-03T09:06:46.319Z,18.52
2023-05-03T09:08:48.546Z,19.40
2023-05-03T09:10:50.769Z,19.38
2023-05-03T09:12:58.348Z,18.35
2023-05-03T09:15:01.040Z,17.55
2023-05-03T09:19:11.607Z,19.20
2023-05-03T09:21:20.699Z,17.70
2023-05-03T09:23:28.851Z,18.67
2023-05-03T09:25:51.698Z,18.40
2023-05-03T09:28:02.996Z,17.23
2023-05-03T09:30:18.645Z,18.10
2023-05-03T09:32:22.802Z,16.63
2023-05-03T09:34:25.019Z,16.38
2023-05-03T09:36:27.894Z,18.90
2023-05-03T09:38:39.570Z,16.73
2023-05-03T09:40:48.945Z,17.30
2023-05-03T09:43:12.972Z,18.63
2023-05-03T09:45:24.164Z,15.40
2023-05-03T09:47:31.768Z,16.35
2023-05-03T09:49:36.928Z,16.08
2023-05-03T09:51:41.659Z,16.17
2023-05-03T09:53:43.849Z,14.73
2023-05-03T09:55:47.634Z,14.82
2023-05-03T09:57:50.901Z,14.35
2023-05-03T09:59:53.275Z,14.10
2023-05-03T10:01:58.823Z,13.25
2023-05-03T10:04:02.135Z,13.60
2023-05-03T10:06:06.398Z,11.52
2023-05-03T10:08:11.407Z,11.60
2023-05-03T10:10:13.517Z,12.80
2023-05-03T10:12:18.876Z,12.77
2023-05-03T10:14:22.300Z,12.18
2023-05-03T10:16:26.867Z,11.95
2023-05-03T10:18:30.808Z,12.07
2023-05-03T10:20:59.367Z,11.65
2023-05-03T10:23:07.984Z,12.30
2023-05-03T10:25:10.776Z,11.20
2023-05-03T10:29:46.216Z,12.10
2023-05-03T10:31:48.843Z,12.80
2023-05-03T10:33:51.198Z,12.10
2023-05-03T10:35:53.920Z,12.75
2023-05-03T10:37:57.023Z,14.52
2023-05-03T10:40:06.635Z,12.85
2023-05-03T10:42:09.527Z,13.77
2023-05-03T10:44:41.207Z,13.23
2023-05-03T10:46:44.604Z,14.73
2023-05-03T10:49:06.798Z,13.73
2023-05-03T10:51:33.192Z,16.92
2023-05-03T10:53:37.091Z,15.13
2023-05-03T10:55:39.325Z,16.02
2023-05-03T10:57:43.649Z,16.48
2023-05-03T10:59:49.785Z,17.92
2023-05-03T11:01:53.192Z,19.02
2023-05-03T11:04:14.151Z,19.40
2023-05-03T11:06:36.469Z,19.85
2023-05-03T11:08:38.930Z,21.55
2023-05-03T11:10:41.978Z,20.92
2023-05-03T11:12:44.234Z,22.67
2023-05-03T11:14:46.400Z,19.20
2023-05-03T11:16:50.715Z,23.00
2023-05-03T11:18:53.248Z,21.42
2023-05-03T11:20:55.992Z,22.25
2023-05-03T11:25:00.301Z,19.58
2023-05-03T11:27:07.740Z,21.27
2023-05-03T11:29:13.042Z,21.92
2023-05-03T11:31:15.316Z,22.17
2023-05-03T11:33:17.620Z,18.65
2023-05-03T11:35:23.934Z,18.13
2023-05-03T11:37:27.691Z,20.30
2023-05-03T11:39:30.242Z,20.77
2023-05-03T11:41:32.804Z,23.13
2023-05-03T11:43:35.009Z,17.02
2023-05-03T11:45:44.954Z,17.52
2023-05-03T11:47:47.546Z,18.52
2023-05-03T11:49:56.764Z,17.05
2023-05-03T11:51:59.061Z,16.75
2023-05-03T11:54:12.809Z,19.88
2023-05-03T11:56:22.946Z,15.85
2023-05-03T11:58:26.618Z,16.00
2023-05-03T12:00:29.328Z,13.75
2023-05-03T12:02:33.010Z,12.38
2023-05-03T12:04:36.271Z,13.18
2023-05-03T12:06:39.817Z,16.10
2023-05-03T12:08:44.907Z,16.20
2023-05-03T12:10:49.611Z,12.85
2023-05-03T12:12:54.036Z,12.80
2023-05-03T12:15:00.399Z,13.35
2023-05-03T12:17:04.369Z,13.30
2023-05-03T12:19:08.807Z,14.25
2023-05-03T12:23:18.758Z,16.20
2023-05-03T12:25:25.792Z,16.40
2023-05-03T12:27:30.469Z,17.67
2023-05-03T12:29:35.688Z,18.48
2023-05-03T12:31:39.517Z,21.92
2023-05-03T12:33:43.648Z,14.07
2023-05-03T12:35:48.124Z,12.93
2023-05-03T12:37:51.256Z,15.20
2023-05-03T12:40:09.310Z,6.65
2023-05-03T12:42:15.886Z,5.75
2023-05-03T12:44:22.013Z,6.90
2023-05-03T12:46:34.485Z,10.25
2023-05-03T12:48:37.751Z,8.52
2023-05-03T12:52:49.134Z,15.85
2023-05-03T12:55:02.990Z,13.65
2023-05-03T12:57:08.994Z,12.05
2023-05-03T12:59:31.778Z,10.98
2023-05-03T13:03:44.005Z,8.55
2023-05-03T13:05:47.512Z,12.25
2023-05-03T13:07:55.545Z,11.57
2023-05-03T13:12:04.833Z,10.25
2023-05-03T13:14:07.516Z,11.13
2023-05-03T13:16:09.812Z,11.02
2023-05-03T13:18:14.415Z,8.95
2023-05-03T13:20:16.645Z,7.88
2023-05-03T13:22:18.967Z,6.82
2023-05-03T13:24:21.209Z,7.25
2023-05-03T13:26:23.387Z,6.53
2023-05-03T13:28:27.150Z,7.47
2023-05-03T13:30:29.443Z,7.72
2023-05-03T13:32:33.229Z,7.40
2023-05-03T13:34:36.332Z,6.68
2023-05-03T13:36:38.796Z,5.80
2023-05-03T13:38:42.126Z,6.20
2023-05-03T13:40:44.303Z,5.05
2023-05-03T13:42:47.503Z,5.97
2023-05-03T13:44:49.636Z,6.68
2023-05-03T13:46:52.501Z,8.70
2023-05-03T13:48:56.335Z,9.88
2023-05-03T13:50:58.635Z,8.60
2023-05-03T13:53:00.825Z,8.93
2023-05-03T13:55:04.222Z,8.35
2023-05-03T13:57:06.354Z,7.20
2023-05-03T13:59:09.776Z,6.20
2023-05-03T14:01:12.720Z,6.10
2023-05-03T14:03:15.362Z,5.85
2023-05-03T14:07:21.845Z,6.68
2023-05-03T14:09:24.260Z,7.35
2023-05-03T14:11:27.245Z,7.00
2023-05-03T14:13:40.412Z,7.07
2023-05-03T14:15:50.022Z,7.05
2023-05-03T14:17:52.319Z,6.93
2023-05-03T14:19:54.587Z,6.80
2023-05-03T14:21:59.085Z,7.78
2023-05-03T14:24:01.871Z,7.07
2023-05-03T14:28:07.054Z,7.57
2023-05-03T14:30:09.913Z,7.13
2023-05-03T14:32:12.268Z,8.60
2023-05-03T14:34:14.457Z,8.30
2023-05-03T14:36:16.708Z,7.55
2023-05-03T14:38:18.917Z,8.38
2023-05-03T14:40:21.839Z,9.90
2023-05-03T14:42:24.116Z,6.78
2023-05-03T14:44:27.074Z,6.90
2023-05-03T14:46:29.292Z,6.38
2023-05-03T14:48:31.504Z,7.10
2023-05-03T14:50:33.709Z,7.60
2023-05-03T14:52:37.586Z,6.90
2023-05-03T14:54:39.796Z,7.03
2023-05-03T14:56:41.995Z,6.07
2023-05-03T14:58:44.179Z,6.93
2023-05-03T15:00:46.754Z,6.68
2023-05-03T15:02:53.405Z,6.57
2023-05-03T15:04:55.598Z,7.22
2023-05-03T15:07:06.465Z,6.40
2023-05-03T15:09:09.826Z,5.82
2023-05-03T15:11:12.929Z,7.63
2023-05-03T15:13:17.058Z,7.68
2023-05-03T15:15:19.400Z,9.38
2023-05-03T15:17:22.976Z,7.10
2023-05-03T15:19:26.612Z,6.25
2023-05-03T15:21:28.752Z,7.43
2023-05-03T15:23:31.096Z,6.65
2023-05-03T15:25:33.754Z,7.70
2023-05-03T15:27:36.057Z,6.40
2023-05-03T15:29:38.201Z,4.95
2023-05-03T15:31:40.431Z,5.93
2023-05-03T15:33:43.405Z,6.90
2023-05-03T15:35:45.694Z,6.53
2023-05-03T15:37:48.239Z,6.25
2023-05-03T15:39:50.405Z,5.63
2023-05-03T15:41:52.550Z,5.53
2023-05-03T15:43:55.619Z,5.70
2023-05-03T15:45:57.862Z,6.88
2023-05-03T15:48:00.369Z,5.35
2023-05-03T15:50:02.905Z,5.45
2023-05-03T15:54:09.926Z,6.15
2023-05-03T15:56:12.345Z,5.55
2023-05-03T15:58:14.929Z,4.90
2023-05-03T16:00:17.528Z,4.70
2023-05-03T16:02:19.726Z,5.75
2023-05-03T16:04:21.853Z,4.72
2023-05-03T16:06:24.042Z,4.38
2023-05-03T16:08:26.413Z,5.53
2023-05-03T16:10:28.779Z,5.22
2023-05-03T16:12:31.072Z,4.88
2023-05-03T16:14:33.306Z,4.50
2023-05-03T16:16:39.899Z,4.85
2023-05-03T16:18:42.144Z,5.40
2023-05-03T16:20:44.330Z,4.95
2023-05-03T16:22:48.207Z,5.10
2023-05-03T16:24:51.239Z,4.75
2023-05-03T16:26:53.414Z,5.03
2023-05-03T16:28:55.564Z,5.10
2023-05-03T16:30:58.183Z,5.25
2023-05-03T16:33:00.452Z,4.47
2023-05-03T16:35:03.505Z,4.65
2023-05-03T16:37:06.041Z,5.72
2023-05-03T16:39:08.720Z,5.03
2023-05-03T16:43:15.486Z,4.80
2023-05-03T16:45:19.520Z,6.47
2023-05-03T16:47:22.449Z,6.72
2023-05-03T16:49:24.597Z,5.10
2023-05-03T16:51:27.938Z,4.50
2023-05-03T16:53:31.205Z,4.80
2023-05-03T16:55:33.381Z,3.67
2023-05-03T16:57:36.585Z,4.72
2023-05-03T16:59:38.797Z,4.20
2023-05-03T17:01:41.018Z,4.05
2023-05-03T17:03:43.367Z,5.60
2023-05-03T17:05:45.613Z,4.70
2023-05-03T17:07:47.815Z,4.38
2023-05-03T17:09:49.942Z,4.85
2023-05-03T17:11:52.489Z,4.50
2023-05-03T17:13:54.614Z,4.43
2023-05-03T17:15:56.764Z,3.92
2023-05-03T17:17:59.326Z,4.05
2023-05-03T17:20:02.739Z,5.88
2023-05-03T17:22:05.361Z,3.53
2023-05-03T17:24:08.625Z,4.28
2023-05-03T17:26:11.961Z,4.30
2023-05-03T17:28:14.083Z,3.88
2023-05-03T17:30:17.746Z,4.20
2023-05-03T17:32:21.308Z,3.85
2023-05-03T17:34:24.912Z,3.65
2023-05-03T17:36:29.175Z,4.00
2023-05-03T17:38:35.754Z,4.38
2023-05-03T17:40:41.117Z,3.75
2023-05-03T17:42:43.307Z,4.13
2023-05-03T17:44:45.605Z,4.13
2023-05-03T17:46:47.890Z,4.20
2023-05-03T17:48:50.129Z,4.20
2023-05-03T17:50:59.049Z,3.67
2023-05-03T17:53:01.306Z,5.03
2023-05-03T17:55:03.550Z,4.78
2023-05-03T17:57:05.745Z,3.60
2023-05-03T17:59:08.092Z,5.65
2023-05-03T18:01:11.235Z,6.25
2023-05-03T18:03:14.669Z,7.47
2023-05-03T18:05:17.180Z,6.45
2023-05-03T18:07:19.693Z,6.93
2023-05-03T18:09:22.992Z,6.43
2023-05-03T18:11:26.907Z,6.63
2023-05-03T18:13:29.658Z,7.05
2023-05-03T18:17:34.207Z,7.60
2023-05-03T18:19:36.947Z,6.90
2023-05-03T18:23:42.550Z,6.93
2023-05-03T18:25:47.309Z,6.30
2023-05-03T18:27:49.507Z,7.65
2023-05-03T18:29:51.699Z,6.68
2023-05-03T18:31:54.924Z,6.93
2023-05-03T18:33:57.098Z,7.63
2023-05-03T18:35:59.363Z,7.57
2023-05-03T18:38:01.833Z,12.63
2023-05-03T18:40:04.677Z,7.47
2023-05-03T18:42:07.100Z,9.20
2023-05-03T18:44:09.325Z,7.50
2023-05-03T18:46:11.868Z,7.40
2023-05-03T18:48:14.148Z,9.98
2023-05-03T18:50:16.724Z,10.30
2023-05-03T18:52:22.336Z,11.18
2023-05-03T18:54:24.561Z,10.88
2023-05-03T18:56:30.116Z,10.48
2023-05-03T18:58:32.845Z,9.15
2023-05-03T19:00:35.101Z,9.00
2023-05-03T19:02:37.468Z,9.55
2023-05-03T19:04:39.640Z,10.07
2023-05-03T19:06:42.317Z,13.27
2023-05-03T19:08:44.610Z,11.35
2023-05-03T19:10:46.798Z,10.05
2023-05-03T19:12:49.005Z,10.68
2023-05-03T19:14:51.551Z,9.48
2023-05-03T19:16:53.826Z,8.40
2023-05-03T19:18:56.163Z,8.70
2023-05-03T19:20:58.612Z,9.05
2023-05-03T19:23:01.618Z,7.65
2023-05-03T19:25:05.036Z,10.93
2023-05-03T19:27:07.438Z,9.80
2023-05-03T19:29:09.622Z,8.55
2023-05-03T19:31:12.067Z,9.02
2023-05-03T19:33:14.296Z,8.10
2023-05-03T19:35:16.500Z,8.80
2023-05-03T19:37:18.723Z,8.73
2023-05-03T19:39:20.893Z,7.93
2023-05-03T19:41:23.076Z,8.85
2023-05-03T19:43:25.431Z,7.53
2023-05-03T19:45:27.608Z,9.63
2023-05-03T19:47:29.850Z,9.63
2023-05-03T19:49:33.057Z,10.30
2023-05-03T19:51:35.417Z,9.82
2023-05-03T19:53:37.869Z,10.18
2023-05-03T19:55:40.316Z,8.77
2023-05-03T19:57:42.527Z,9.63
2023-05-03T19:59:44.778Z,12.25
2023-05-03T20:01:47.023Z,10.10
2023-05-03T20:03:49.637Z,9.68
2023-05-03T20:07:54.053Z,9.70
2023-05-03T20:09:56.221Z,9.70
2023-05-03T20:12:02.138Z,10.27
2023-05-03T20:14:04.535Z,11.38
2023-05-03T20:16:08.160Z,9.68
2023-05-03T20:18:10.788Z,9.93
2023-05-03T20:20:14.472Z,10.27
2023-05-03T20:22:17.417Z,10.18
2023-05-03T20:24:22.505Z,10.32
2023-05-03T20:26:24.790Z,9.63
2023-05-03T20:28:26.930Z,9.18
2023-05-03T20:30:31.681Z,9.45
2023-05-03T20:32:36.384Z,9.77
2023-05-03T20:34:40.178Z,10.90
2023-05-03T20:36:42.421Z,13.55
2023-05-03T20:38:44.603Z,10.13
2023-05-03T20:40:46.773Z,10.70
2023-05-03T20:42:48.996Z,12.43
2023-05-03T20:44:54.286Z,12.40
2023-05-03T20:46:56.516Z,11.90
2023-05-03T20:48:58.848Z,13.55
2023-05-03T20:51:01.020Z,11.48
2023-05-03T20:53:03.402Z,10.80
2023-05-03T20:55:06.153Z,14.32
2023-05-03T20:59:10.571Z,14.43
2023-05-03T21:01:14.322Z,13.57
2023-05-03T21:03:16.713Z,12.95
2023-05-03T21:05:19.367Z,15.43
2023-05-03T21:07:21.516Z,12.63
2023-05-03T21:09:24.193Z,13.23
2023-05-03T21:13:28.467Z,16.15
2023-05-03T21:15:30.646Z,12.90
2023-05-03T21:17:32.797Z,12.93
2023-05-03T21:19:35.022Z,13.70
2023-05-03T21:21:37.378Z,13.82
2023-05-03T21:23:39.549Z,14.45
2023-05-03T21:25:41.697Z,15.50
2023-05-03T21:27:43.863Z,14.95
2023-05-03T21:29:46.351Z,12.80
2023-05-03T21:31:48.570Z,13.27
2023-05-03T21:33:50.885Z,14.02
2023-05-03T21:35:53.059Z,12.50
2023-05-03T21:37:55.289Z,13.65
2023-05-03T21:40:02.175Z,13.88
2023-05-03T21:42:05.142Z,14.45
2023-05-03T21:44:07.596Z,13.50
2023-05-03T21:46:09.900Z,17.02
2023-05-03T21:48:12.595Z,14.02
2023-05-03T21:52:17.053Z,13.43
2023-05-03T21:54:19.279Z,13.85
2023-05-03T21:56:21.744Z,13.40
2023-05-03T21:58:23.931Z,14.20
2023-05-03T22:00:27.373Z,14.13
2023-05-03T22:02:29.691Z,14.88
2023-05-03T22:04:31.972Z,14.43
2023-05-03T22:06:34.133Z,14.25
2023-05-03T22:08:36.421Z,17.40
2023-05-03T22:10:38.567Z,14.05
2023-05-03T22:12:40.827Z,15.32
2023-05-03T22:14:42.996Z,17.50
2023-05-03T22:16:45.148Z,15.68
2023-05-03T22:18:47.353Z,14.88
2023-05-03T22:20:49.497Z,16.13
2023-05-03T22:22:51.636Z,14.23
2023-05-03T22:24:53.787Z,13.45
2023-05-03T22:26:55.909Z,14.63
2023-05-03T22:28:58.038Z,14.00
2023-05-03T22:31:00.188Z,14.13
2023-05-03T22:33:02.363Z,13.35
2023-05-03T22:35:04.622Z,14.77
2023-05-03T22:37:06.885Z,19.42
2023-05-03T22:39:09.003Z,13.70
2023-05-03T22:41:11.310Z,14.73
2023-05-03T22:43:13.472Z,16.23
2023-05-03T22:45:15.691Z,13.45
2023-05-03T22:47:17.837Z,14.00
2023-05-03T22:49:20.126Z,12.57
2023-05-03T22:51:22.260Z,12.82
2023-05-03T22:53:24.527Z,13.40
2023-05-03T22:55:27.160Z,14.35
2023-05-03T22:57:29.399Z,15.05
2023-05-03T22:59:31.514Z,13.00
2023-05-03T23:01:34.131Z,13.40
2023-05-03T23:03:36.815Z,13.57
2023-05-03T23:07:43.068Z,13.50
2023-05-03T23:09:48.488Z,13.40
2023-05-03T23:11:50.694Z,13.70
2023-05-03T23:13:52.839Z,13.50
2023-05-03T23:15:55.453Z,12.85
2023-05-03T23:20:00.233Z,15.07
2023-05-03T23:22:02.836Z,14.52
2023-05-03T23:24:05.268Z,15.02
2023-05-03T23:26:07.425Z,15.05
2023-05-03T23:28:10.263Z,15.20
2023-05-03T23:32:14.974Z,15.82
2023-05-03T23:36:20.790Z,16.13
2023-05-03T23:38:22.966Z,15.00
2023-05-03T23:40:25.192Z,14.88
2023-05-03T23:42:27.334Z,15.95
2023-05-03T23:44:38.676Z,14.10
2023-05-03T23:46:48.858Z,15.25
2023-05-03T23:48:50.990Z,14.43
2023-05-03T23:50:53.160Z,15.52
2023-05-03T23:52:55.718Z,15.77
2023-05-03T23:54:57.906Z,15.45
2023-05-03T23:57:01.672Z,14.30
2023-05-03T23:59:05.690Z,14.07
